createdAt,value
2018-07-03T00:01:11.461Z,1.10
2018-07-03T00:03:40.860Z,1.20
2018-07-03T00:06:10.481Z,1.60
2018-07-03T00:08:40.323Z,1.23
2018-07-03T00:11:10.297Z,1.13
2018-07-03T00:13:40.028Z,1.27
2018-07-03T00:16:14.750Z,1.50
2018-07-03T00:18:44.211Z,1.87
2018-07-03T00:21:14.456Z,1.47
2018-07-03T00:23:46.429Z,1.00
2018-07-03T00:26:18.452Z,1.03
2018-07-03T00:28:49.737Z,1.40
2018-07-03T00:31:20.634Z,1.00
2018-07-03T00:33:50.726Z,1.47
2018-07-03T00:36:21.172Z,1.30
2018-07-03T00:38:51.133Z,1.60
2018-07-03T00:41:21.146Z,1.33
2018-07-03T00:43:51.681Z,1.30
2018-07-03T00:46:21.622Z,1.13
2018-07-03T00:48:51.332Z,1.10
2018-07-03T00:51:20.939Z,1.37
2018-07-03T00:53:50.985Z,1.33
2018-07-03T00:58:53.878Z,1.37
2018-07-03T01:01:23.296Z,1.63
2018-07-03T01:03:52.610Z,1.10
2018-07-03T01:06:21.936Z,1.77
2018-07-03T01:08:51.428Z,1.17
2018-07-03T01:11:20.910Z,1.87
2018-07-03T01:13:51.137Z,1.47
2018-07-03T01:16:20.666Z,1.60
2018-07-03T01:18:50.107Z,1.40
2018-07-03T01:21:20.189Z,1.77
2018-07-03T01:23:49.642Z,1.47
2018-07-03T01:26:19.072Z,1.23
2018-07-03T01:28:48.756Z,1.47
2018-07-03T01:31:18.370Z,1.43
2018-07-03T01:33:48.460Z,1.30
2018-07-03T01:36:18.200Z,1.40
2018-07-03T01:38:47.703Z,1.53
2018-07-03T01:41:17.434Z,1.80
2018-07-03T01:43:47.029Z,1.73
2018-07-03T01:46:16.854Z,1.40
2018-07-03T01:48:46.444Z,1.50
2018-07-03T01:51:17.436Z,1.27
2018-07-03T01:53:47.090Z,1.20
2018-07-03T01:56:16.902Z,1.50
2018-07-03T01:58:46.456Z,1.30
2018-07-03T02:01:16.315Z,1.23
2018-07-03T02:03:45.949Z,2.30
2018-07-03T02:06:15.563Z,1.47
2018-07-03T02:08:45.552Z,1.40
2018-07-03T02:11:15.278Z,1.50
2018-07-03T02:13:45.513Z,1.53
2018-07-03T02:16:15.509Z,1.30
2018-07-03T02:18:45.527Z,1.30
2018-07-03T02:21:15.393Z,1.37
2018-07-03T02:23:45.148Z,1.33
2018-07-03T02:26:14.579Z,1.23
2018-07-03T02:28:44.213Z,1.47
2018-07-03T02:31:14.091Z,1.73
2018-07-03T02:33:43.551Z,1.90
2018-07-03T02:36:14.007Z,1.50
2018-07-03T02:38:43.741Z,1.63
2018-07-03T02:41:13.553Z,1.80
2018-07-03T02:43:45.440Z,1.50
2018-07-03T02:46:14.888Z,1.40
2018-07-03T02:48:44.499Z,1.80
2018-07-03T02:51:14.572Z,1.87
2018-07-03T02:53:44.187Z,1.60
2018-07-03T02:56:14.672Z,1.60
2018-07-03T02:58:44.209Z,1.40
2018-07-03T03:01:13.663Z,2.00
2018-07-03T03:03:43.273Z,2.03
2018-07-03T03:06:12.982Z,2.30
2018-07-03T03:08:42.614Z,1.80
2018-07-03T03:11:12.293Z,1.40
2018-07-03T03:13:42.081Z,1.50
2018-07-03T03:16:15.025Z,1.33
2018-07-03T03:18:45.700Z,1.30
2018-07-03T03:21:15.342Z,2.10
2018-07-03T03:23:45.098Z,1.97
2018-07-03T03:26:15.768Z,1.87
2018-07-03T03:28:45.628Z,1.90
2018-07-03T03:31:15.098Z,1.20
2018-07-03T03:33:44.820Z,1.73
2018-07-03T03:36:14.698Z,1.83
2018-07-03T03:38:44.612Z,1.80
2018-07-03T03:41:14.759Z,1.70
2018-07-03T03:43:44.821Z,1.80
2018-07-03T03:46:14.458Z,1.90
2018-07-03T03:48:44.476Z,2.00
2018-07-03T03:51:13.984Z,3.20
2018-07-03T03:53:43.800Z,2.40
2018-07-03T03:56:14.249Z,2.20
2018-07-03T03:58:43.972Z,2.17
2018-07-03T04:01:13.647Z,1.73
2018-07-03T04:03:43.634Z,1.90
2018-07-03T04:06:13.687Z,1.93
2018-07-03T04:08:43.717Z,2.33
2018-07-03T04:11:13.836Z,1.80
2018-07-03T04:13:43.677Z,1.90
2018-07-03T04:16:13.654Z,2.10
2018-07-03T04:18:44.556Z,1.53
2018-07-03T04:21:14.571Z,2.07
2018-07-03T04:23:45.037Z,1.80
2018-07-03T04:26:15.783Z,1.53
2018-07-03T04:28:46.009Z,1.83
2018-07-03T04:31:15.616Z,1.90
2018-07-03T04:33:45.330Z,1.90
2018-07-03T04:36:15.283Z,1.77
2018-07-03T04:38:45.227Z,2.00
2018-07-03T04:41:16.099Z,1.73
2018-07-03T04:43:46.724Z,1.83
2018-07-03T04:46:16.853Z,2.20
2018-07-03T04:48:47.352Z,2.30
2018-07-03T04:51:16.856Z,1.97
2018-07-03T04:53:46.576Z,2.03
2018-07-03T04:56:16.707Z,2.00
2018-07-03T04:58:46.488Z,3.27
2018-07-03T05:01:16.524Z,1.77
2018-07-03T05:03:46.516Z,1.80
2018-07-03T05:06:16.345Z,1.90
2018-07-03T05:08:46.525Z,2.50
2018-07-03T05:11:16.670Z,2.03
2018-07-03T05:13:46.317Z,2.13
2018-07-03T05:16:15.886Z,2.07
2018-07-03T05:18:45.418Z,2.03
2018-07-03T05:21:15.153Z,1.50
2018-07-03T05:23:45.194Z,1.80
2018-07-03T05:26:14.567Z,1.60
2018-07-03T05:28:44.717Z,1.77
2018-07-03T05:31:14.336Z,2.13
2018-07-03T05:33:44.146Z,2.43
2018-07-03T05:36:14.020Z,2.20
2018-07-03T05:38:43.837Z,1.70
2018-07-03T05:41:13.850Z,1.83
2018-07-03T05:43:43.744Z,1.80
2018-07-03T05:46:13.308Z,1.77
2018-07-03T05:48:43.707Z,2.23
2018-07-03T05:51:13.596Z,1.90
2018-07-03T05:53:44.268Z,2.20
2018-07-03T05:56:14.219Z,1.90
2018-07-03T05:58:44.152Z,1.87
2018-07-03T06:01:13.972Z,2.00
2018-07-03T06:03:43.716Z,2.60
2018-07-03T06:06:13.465Z,2.33
2018-07-03T06:08:42.940Z,1.67
2018-07-03T06:11:12.504Z,2.10
2018-07-03T06:13:42.211Z,1.90
2018-07-03T06:16:11.918Z,1.97
2018-07-03T06:18:41.404Z,1.50
2018-07-03T06:21:11.005Z,1.40
2018-07-03T06:23:41.126Z,1.30
2018-07-03T06:26:10.736Z,1.57
2018-07-03T06:28:40.647Z,1.40
2018-07-03T06:31:12.969Z,1.30
2018-07-03T06:33:42.502Z,1.90
2018-07-03T06:36:12.636Z,1.50
2018-07-03T06:38:43.278Z,1.57
2018-07-03T06:41:13.487Z,1.00
2018-07-03T06:43:43.816Z,1.63
2018-07-03T06:46:14.147Z,1.33
2018-07-03T06:48:44.036Z,1.43
2018-07-03T06:51:14.072Z,1.57
2018-07-03T06:53:43.969Z,1.37
2018-07-03T06:56:13.832Z,1.30
2018-07-03T06:58:43.616Z,1.27
2018-07-03T07:01:14.205Z,1.27
2018-07-03T07:03:44.375Z,1.30
2018-07-03T07:06:14.590Z,0.90
2018-07-03T07:08:45.325Z,1.40
2018-07-03T07:11:15.097Z,1.20
2018-07-03T07:13:45.059Z,1.30
2018-07-03T07:16:16.017Z,1.53
2018-07-03T07:18:45.631Z,1.03
2018-07-03T07:21:15.348Z,1.00
2018-07-03T07:23:46.280Z,1.83
2018-07-03T07:26:15.848Z,2.00
2018-07-03T07:28:45.420Z,1.17
2018-07-03T07:31:16.631Z,1.73
2018-07-03T07:33:46.409Z,1.13
2018-07-03T07:36:16.839Z,1.30
2018-07-03T07:38:46.519Z,1.20
2018-07-03T07:41:16.361Z,1.03
2018-07-03T07:43:46.262Z,1.13
2018-07-03T07:46:17.166Z,1.30
2018-07-03T07:48:47.217Z,1.07
2018-07-03T07:51:17.109Z,1.77
2018-07-03T07:53:47.579Z,1.07
2018-07-03T07:56:18.311Z,1.20
2018-07-03T07:58:48.831Z,1.10
2018-07-03T08:01:19.549Z,1.60
2018-07-03T08:03:49.321Z,1.00
2018-07-03T08:06:18.801Z,1.60
2018-07-03T08:08:48.703Z,1.10
2018-07-03T08:11:18.577Z,1.60
2018-07-03T08:13:48.166Z,1.27
2018-07-03T08:16:17.941Z,1.20
2018-07-03T08:18:47.905Z,0.83
2018-07-03T08:21:17.551Z,1.53
2018-07-03T08:23:47.196Z,1.67
2018-07-03T08:26:17.047Z,2.43
2018-07-03T08:28:46.706Z,1.43
2018-07-03T08:31:16.801Z,1.60
2018-07-03T08:33:48.098Z,2.07
2018-07-03T08:36:18.135Z,2.07
2018-07-03T08:38:48.464Z,2.07
2018-07-03T08:41:18.536Z,1.50
2018-07-03T08:43:48.594Z,1.87
2018-07-03T08:46:18.344Z,1.63
2018-07-03T08:48:48.016Z,1.43
2018-07-03T08:51:17.832Z,1.43
2018-07-03T08:53:47.477Z,1.87
2018-07-03T08:56:17.230Z,1.63
2018-07-03T08:58:48.237Z,1.80
2018-07-03T09:01:18.851Z,1.63
2018-07-03T09:03:49.072Z,1.73
2018-07-03T09:06:18.820Z,1.67
2018-07-03T09:08:49.495Z,2.03
2018-07-03T09:11:19.106Z,1.77
2018-07-03T09:13:48.772Z,2.33
2018-07-03T09:16:19.906Z,1.70
2018-07-03T09:18:49.652Z,1.97
2018-07-03T09:21:19.430Z,1.33
2018-07-03T09:23:49.709Z,1.63
2018-07-03T09:26:19.638Z,1.60
2018-07-03T09:28:49.356Z,1.57
2018-07-03T09:31:19.286Z,2.10
2018-07-03T09:33:48.693Z,2.80
2018-07-03T09:36:18.003Z,2.10
2018-07-03T09:38:48.086Z,2.80
2018-07-03T09:41:17.678Z,2.33
2018-07-03T09:43:47.337Z,2.70
2018-07-03T09:46:17.120Z,2.70
2018-07-03T09:48:46.825Z,2.47
2018-07-03T09:51:17.487Z,3.03
2018-07-03T09:53:48.916Z,2.50
2018-07-03T09:56:18.579Z,3.07
2018-07-03T09:58:48.718Z,2.97
2018-07-03T10:01:19.634Z,2.33
2018-07-03T10:03:50.090Z,2.20
2018-07-03T10:06:19.682Z,2.17
2018-07-03T10:08:50.012Z,2.60
2018-07-03T10:11:19.471Z,2.80
2018-07-03T10:13:49.197Z,2.50
2018-07-03T10:16:18.802Z,3.00
2018-07-03T10:18:48.194Z,3.27
2018-07-03T10:21:17.912Z,2.77
2018-07-03T10:23:47.317Z,2.30
2018-07-03T10:26:17.057Z,2.77
2018-07-03T10:28:47.145Z,2.63
2018-07-03T10:31:17.391Z,2.73
2018-07-03T10:33:47.029Z,2.67
2018-07-03T10:36:16.651Z,3.40
2018-07-03T10:38:52.766Z,3.43
2018-07-03T10:41:22.042Z,3.13
2018-07-03T10:43:51.681Z,3.20
2018-07-03T10:46:21.190Z,2.67
2018-07-03T10:48:50.653Z,3.17
2018-07-03T10:51:20.087Z,3.30
2018-07-03T10:53:51.330Z,2.60
2018-07-03T10:56:21.812Z,3.53
2018-07-03T10:58:52.658Z,3.33
2018-07-03T11:01:22.158Z,2.90
2018-07-03T11:03:52.023Z,3.00
2018-07-03T11:06:21.496Z,3.23
2018-07-03T11:08:51.097Z,2.20
2018-07-03T11:11:20.472Z,2.63
2018-07-03T11:13:49.960Z,2.50
2018-07-03T11:16:19.315Z,1.97
2018-07-03T11:18:48.960Z,2.93
2018-07-03T11:21:19.400Z,2.40
2018-07-03T11:23:49.797Z,2.70
2018-07-03T11:26:19.381Z,2.27
2018-07-03T11:28:48.886Z,2.23
2018-07-03T11:31:18.379Z,2.37
2018-07-03T11:33:47.999Z,2.47
2018-07-03T11:36:17.685Z,1.97
2018-07-03T11:38:47.316Z,2.03
2018-07-03T11:41:16.902Z,1.90
2018-07-03T11:43:46.774Z,2.60
2018-07-03T11:46:17.344Z,1.43
2018-07-03T11:48:47.046Z,2.17
2018-07-03T11:51:16.916Z,1.50
2018-07-03T11:53:46.499Z,1.60
2018-07-03T11:56:16.972Z,1.87
2018-07-03T11:58:46.840Z,1.77
2018-07-03T12:01:16.753Z,2.07
2018-07-03T12:03:47.352Z,2.03
2018-07-03T12:06:17.254Z,1.83
2018-07-03T12:08:46.868Z,2.20
2018-07-03T12:11:16.601Z,2.37
2018-07-03T12:13:46.304Z,2.63
2018-07-03T12:16:16.010Z,2.50
2018-07-03T12:18:50.941Z,1.90
2018-07-03T12:21:20.457Z,2.70
2018-07-03T12:23:49.997Z,2.10
2018-07-03T12:26:20.334Z,1.83
2018-07-03T12:28:49.691Z,1.50
2018-07-03T12:31:19.261Z,1.60
2018-07-03T12:33:48.976Z,2.00
2018-07-03T12:36:18.479Z,1.90
2018-07-03T12:38:48.418Z,2.00
2018-07-03T12:41:19.343Z,2.37
2018-07-03T12:43:49.049Z,1.93
2018-07-03T12:46:19.100Z,2.00
2018-07-03T12:48:49.134Z,1.90
2018-07-03T12:51:18.920Z,1.50
2018-07-03T12:53:48.920Z,2.40
2018-07-03T12:56:19.227Z,1.93
2018-07-03T12:58:49.082Z,2.63
2018-07-03T13:01:19.005Z,1.80
2018-07-03T13:03:49.765Z,2.40
2018-07-03T13:06:19.512Z,1.93
2018-07-03T13:08:49.451Z,2.33
2018-07-03T13:11:20.163Z,2.00
2018-07-03T13:13:49.579Z,2.30
2018-07-03T13:16:19.131Z,2.43
2018-07-03T13:18:48.943Z,2.63
2018-07-03T13:21:18.915Z,2.60
2018-07-03T13:23:48.494Z,2.30
2018-07-03T13:26:18.623Z,2.17
2018-07-03T13:28:48.620Z,2.03
2018-07-03T13:31:18.662Z,3.00
2018-07-03T13:33:48.421Z,2.40
2018-07-03T13:36:17.976Z,2.70
2018-07-03T13:38:47.785Z,2.13
2018-07-03T13:41:17.627Z,2.07
2018-07-03T13:43:47.594Z,2.27
2018-07-03T13:46:17.499Z,2.73
2018-07-03T13:48:47.174Z,1.90
2018-07-03T13:51:17.179Z,2.77
2018-07-03T13:53:47.134Z,2.13
2018-07-03T13:56:16.906Z,2.40
2018-07-03T13:58:46.659Z,1.93
2018-07-03T14:01:16.780Z,2.50
2018-07-03T14:03:47.062Z,1.97
2018-07-03T14:06:17.174Z,2.03
2018-07-03T14:08:47.091Z,3.80
2018-07-03T14:11:16.753Z,2.53
2018-07-03T14:13:47.241Z,2.27
2018-07-03T14:16:18.056Z,2.40
2018-07-03T14:18:47.621Z,2.30
2018-07-03T14:21:17.317Z,2.60
2018-07-03T14:23:47.169Z,2.23
2018-07-03T14:26:16.978Z,3.80
2018-07-03T14:28:46.590Z,2.47
2018-07-03T14:31:16.296Z,3.07
2018-07-03T14:33:45.868Z,2.77
2018-07-03T14:36:15.507Z,2.30
2018-07-03T14:38:45.337Z,2.53
2018-07-03T14:41:14.929Z,2.80
2018-07-03T14:43:44.446Z,2.40
2018-07-03T14:46:14.135Z,2.40
2018-07-03T14:48:43.871Z,4.10
2018-07-03T14:51:15.248Z,2.40
2018-07-03T14:53:45.262Z,2.40
2018-07-03T14:56:15.338Z,2.27
2018-07-03T14:58:45.152Z,2.50
2018-07-03T15:01:14.671Z,2.53
2018-07-03T15:03:44.235Z,2.77
2018-07-03T15:06:14.263Z,2.17
2018-07-03T15:08:45.922Z,2.53
2018-07-03T15:11:19.775Z,2.20
2018-07-03T15:13:51.406Z,2.50
2018-07-03T15:16:24.239Z,2.47
2018-07-03T15:19:01.334Z,1.87
2018-07-03T15:21:31.435Z,3.00
2018-07-03T15:24:04.293Z,2.70
2018-07-03T15:26:34.375Z,2.27
2018-07-03T15:29:06.774Z,2.60
2018-07-03T15:31:36.900Z,2.97
2018-07-03T15:34:06.979Z,2.50
2018-07-03T15:36:37.199Z,2.30
2018-07-03T15:39:12.303Z,1.83
2018-07-03T15:41:43.027Z,2.57
2018-07-03T15:44:23.695Z,1.87
2018-07-03T15:46:53.176Z,2.10
2018-07-03T15:49:22.577Z,2.97
2018-07-03T15:51:51.972Z,2.30
2018-07-03T15:54:21.752Z,2.40
2018-07-03T15:56:51.887Z,2.13
2018-07-03T15:59:21.284Z,2.90
2018-07-03T16:01:50.717Z,2.47
2018-07-03T16:05:34.949Z,1.87
2018-07-03T16:09:11.750Z,2.80
2018-07-03T16:11:42.164Z,2.90
2018-07-03T16:14:12.819Z,2.57
2018-07-03T16:16:43.919Z,2.80
2018-07-03T16:19:18.759Z,2.53
2018-07-03T16:21:48.349Z,2.50
2018-07-03T16:24:18.149Z,2.93
2018-07-03T16:26:47.761Z,4.10
2018-07-03T16:29:18.394Z,3.47
2018-07-03T16:31:51.227Z,3.33
2018-07-03T16:34:21.008Z,3.50
2018-07-03T16:36:50.490Z,2.70
2018-07-03T16:39:19.962Z,2.90
2018-07-03T16:41:50.535Z,2.60
2018-07-03T16:44:20.439Z,3.23
2018-07-03T16:46:49.998Z,3.00
2018-07-03T16:49:20.203Z,3.27
2018-07-03T16:51:49.890Z,3.63
2018-07-03T16:54:19.681Z,3.17
2018-07-03T16:56:49.599Z,3.10
2018-07-03T16:59:19.056Z,3.20
2018-07-03T17:01:53.057Z,2.70
2018-07-03T17:04:22.565Z,3.83
2018-07-03T17:06:54.240Z,2.93
2018-07-03T17:09:23.883Z,3.47
2018-07-03T17:11:54.784Z,2.77
2018-07-03T17:14:29.715Z,3.07
2018-07-03T17:16:59.260Z,3.10
2018-07-03T17:19:42.928Z,2.80
2018-07-03T17:22:13.337Z,3.17
2018-07-03T17:24:44.368Z,3.27
2018-07-03T17:27:15.299Z,2.93
2018-07-03T17:29:45.053Z,3.53
2018-07-03T17:32:15.715Z,3.13
2018-07-03T17:34:46.755Z,3.23
2018-07-03T17:37:17.136Z,3.07
2018-07-03T17:39:58.819Z,3.17
2018-07-03T17:42:39.601Z,2.60
2018-07-03T17:45:47.326Z,2.30
2018-07-03T17:48:18.591Z,3.23
2018-07-03T17:50:49.341Z,2.77
2018-07-03T17:53:19.006Z,2.90
2018-07-03T17:55:49.028Z,3.10
2018-07-03T17:58:19.411Z,2.77
2018-07-03T18:01:53.429Z,3.23
2018-07-03T18:04:23.363Z,3.70
2018-07-03T18:06:52.900Z,3.63
2018-07-03T18:09:22.681Z,2.77
2018-07-03T18:11:54.181Z,3.23
2018-07-03T18:14:25.967Z,3.90
2018-07-03T18:16:55.574Z,3.57
2018-07-03T18:19:30.161Z,2.93
2018-07-03T18:21:59.634Z,2.83
2018-07-03T18:24:29.361Z,2.53
2018-07-03T18:26:59.273Z,2.60
2018-07-03T18:29:28.685Z,2.60
2018-07-03T18:31:58.131Z,3.47
2018-07-03T18:34:27.503Z,3.53
2018-07-03T18:36:57.048Z,4.30
2018-07-03T18:39:26.565Z,2.73
2018-07-03T18:41:55.924Z,3.30
2018-07-03T18:44:25.289Z,3.00
2018-07-03T18:46:54.678Z,2.63
2018-07-03T18:49:24.426Z,2.63
2018-07-03T18:51:54.323Z,3.10
2018-07-03T18:54:23.840Z,3.13
2018-07-03T18:56:54.187Z,2.90
2018-07-03T18:59:23.922Z,3.53
2018-07-03T19:01:54.195Z,3.30
2018-07-03T19:04:23.941Z,2.90
2018-07-03T19:06:54.306Z,3.47
2018-07-03T19:09:24.621Z,2.53
2018-07-03T19:11:54.239Z,3.10
2018-07-03T19:14:23.589Z,2.70
2018-07-03T19:16:53.577Z,3.80
2018-07-03T19:19:24.314Z,3.50
2018-07-03T19:21:53.755Z,3.07
2018-07-03T19:24:24.113Z,3.17
2018-07-03T19:26:54.704Z,3.80
2018-07-03T19:29:24.622Z,3.10
2018-07-03T19:31:54.379Z,3.13
2018-07-03T19:34:24.125Z,3.33
2018-07-03T19:36:54.006Z,3.23
2018-07-03T19:39:24.072Z,3.47
2018-07-03T19:41:54.482Z,3.77
2018-07-03T19:44:24.192Z,3.20
2018-07-03T19:46:54.639Z,4.13
2018-07-03T19:49:25.089Z,2.80
2018-07-03T19:51:54.664Z,3.47
2018-07-03T19:54:24.301Z,3.33
2018-07-03T19:56:54.831Z,3.30
2018-07-03T19:59:24.518Z,4.00
2018-07-03T20:01:54.928Z,4.00
2018-07-03T20:04:25.219Z,4.20
2018-07-03T20:06:55.310Z,3.77
2018-07-03T20:09:24.824Z,3.30
2018-07-03T20:11:54.377Z,2.30
2018-07-03T20:14:23.699Z,3.50
2018-07-03T20:16:54.251Z,3.37
2018-07-03T20:19:23.593Z,4.70
2018-07-03T20:21:53.079Z,3.87
2018-07-03T20:24:23.353Z,3.50
2018-07-03T20:26:52.672Z,3.53
2018-07-03T20:29:22.304Z,3.67
2018-07-03T20:31:52.632Z,3.60
2018-07-03T20:34:22.160Z,4.10
2018-07-03T20:36:51.409Z,3.40
2018-07-03T20:39:20.811Z,3.63
2018-07-03T20:41:50.446Z,3.77
2018-07-03T20:44:20.001Z,2.63
2018-07-03T20:46:50.598Z,3.73
2018-07-03T20:49:20.325Z,2.53
2018-07-03T20:51:49.779Z,3.90
2018-07-03T20:54:19.251Z,3.67
2018-07-03T20:56:48.934Z,4.00
2018-07-03T20:59:18.381Z,2.97
2018-07-03T21:01:47.925Z,3.20
2018-07-03T21:04:18.295Z,3.87
2018-07-03T21:06:48.273Z,3.70
2018-07-03T21:09:18.684Z,2.93
2018-07-03T21:11:48.691Z,3.70
2018-07-03T21:14:18.726Z,3.77
2018-07-03T21:16:48.378Z,5.00
2018-07-03T21:19:22.431Z,4.10
2018-07-03T21:21:55.219Z,4.43
2018-07-03T21:24:26.081Z,3.87
2018-07-03T21:26:57.935Z,3.97
2018-07-03T21:29:27.272Z,3.23
2018-07-03T21:31:57.462Z,4.63
2018-07-03T21:34:26.874Z,3.63
2018-07-03T21:36:56.245Z,4.20
2018-07-03T21:39:25.469Z,4.30
2018-07-03T21:41:54.848Z,4.33
2018-07-03T21:44:24.790Z,3.00
2018-07-03T21:46:54.438Z,3.87
2018-07-03T21:49:23.788Z,4.27
2018-07-03T21:51:53.242Z,5.00
2018-07-03T21:54:22.678Z,3.83
2018-07-03T21:56:53.829Z,3.07
2018-07-03T21:59:23.332Z,4.60
2018-07-03T22:01:52.663Z,6.13
2018-07-03T22:04:22.309Z,5.90
2018-07-03T22:06:52.704Z,4.60
2018-07-03T22:09:22.186Z,4.03
2018-07-03T22:11:52.680Z,4.20
2018-07-03T22:14:22.114Z,5.30
2018-07-03T22:16:51.598Z,4.80
2018-07-03T22:19:21.916Z,3.93
2018-07-03T22:21:51.738Z,5.20
2018-07-03T22:24:21.112Z,4.23
2018-07-03T22:26:50.657Z,4.67
2018-07-03T22:29:20.060Z,3.70
2018-07-03T22:31:49.590Z,4.40
2018-07-03T22:34:20.234Z,4.53
2018-07-03T22:36:49.603Z,5.60
2018-07-03T22:39:19.398Z,4.50
2018-07-03T22:41:48.952Z,5.27
2018-07-03T22:44:18.454Z,6.40
2018-07-03T22:46:48.339Z,5.50
2018-07-03T22:49:17.813Z,5.50
2018-07-03T22:51:47.283Z,5.70
2018-07-03T22:54:17.327Z,6.10
2018-07-03T22:56:47.044Z,6.47
2018-07-03T22:59:16.981Z,7.10
2018-07-03T23:01:46.909Z,6.00
2018-07-03T23:04:16.699Z,6.10
2018-07-03T23:06:46.321Z,6.50
2018-07-03T23:09:15.837Z,6.30
2018-07-03T23:11:45.367Z,6.03
2018-07-03T23:14:15.030Z,7.30
2018-07-03T23:16:45.173Z,7.60
2018-07-03T23:19:14.992Z,7.60
2018-07-03T23:21:44.573Z,6.47
2018-07-03T23:24:14.250Z,6.23
2018-07-03T23:26:44.132Z,6.97
2018-07-03T23:29:13.945Z,6.87
2018-07-03T23:31:43.644Z,7.03
2018-07-03T23:34:13.525Z,7.67
2018-07-03T23:36:44.189Z,8.50
2018-07-03T23:39:13.879Z,7.50
2018-07-03T23:41:44.257Z,8.10
2018-07-03T23:44:13.899Z,7.37
2018-07-03T23:46:54.513Z,7.80
2018-07-03T23:49:35.222Z,7.90
2018-07-03T23:52:16.569Z,8.63
2018-07-03T23:54:57.067Z,6.70
2018-07-03T23:57:38.213Z,7.87
